sensor_id;sensor_type;location;lat;lon;timestamp;P1;durP1;ratioP1;P2;durP2;ratioP2
24644;SDS011;12780;45.502;9.146;2023-11-21T00:00:26;73.28;;;41.83;;
24644;SDS011;12780;45.502;9.146;2023-11-21T00:02:52;73.18;;;42.28;;
24644;SDS011;12780;45.502;9.146;2023-11-21T00:05:18;69.43;;;40.88;;
24644;SDS011;12780;45.502;9.146;2023-11-21T00:07:44;76.88;;;41.10;;
24644;SDS011;12780;45.502;9.146;2023-11-21T00:10:11;67.43;;;40.50;;
24644;SDS011;12780;45.502;9.146;2023-11-21T00:12:39;71.40;;;41.92;;
24644;SDS011;12780;45.502;9.146;2023-11-21T00:15:07;68.93;;;41.30;;
24644;SDS011;12780;45.502;9.146;2023-11-21T00:17:37;73.40;;;41.33;;
24644;SDS011;12780;45.502;9.146;2023-11-21T00:20:04;69.28;;;41.10;;
24644;SDS011;12780;45.502;9.146;2023-11-21T00:22:32;65.07;;;40.40;;
24644;SDS011;12780;45.502;9.146;2023-11-21T00:24:58;69.28;;;40.35;;
24644;SDS011;12780;45.502;9.146;2023-11-21T00:27:24;70.15;;;40.85;;
24644;SDS011;12780;45.502;9.146;2023-11-21T00:29:50;68.57;;;39.58;;
24644;SDS011;12780;45.502;9.146;2023-11-21T00:32:16;69.88;;;40.55;;
24644;SDS011;12780;45.502;9.146;2023-11-21T00:34:42;72.05;;;40.15;;
24644;SDS011;12780;45.502;9.146;2023-11-21T00:37:09;72.43;;;40.40;;
24644;SDS011;12780;45.502;9.146;2023-11-21T00:39:35;70.55;;;39.97;;
24644;SDS011;12780;45.502;9.146;2023-11-21T00:42:01;67.18;;;39.25;;
24644;SDS011;12780;45.502;9.146;2023-11-21T00:44:27;66.82;;;38.33;;
24644;SDS011;12780;45.502;9.146;2023-11-21T00:46:53;68.13;;;40.00;;
24644;SDS011;12780;45.502;9.146;2023-11-21T00:49:19;73.55;;;41.25;;
24644;SDS011;12780;45.502;9.146;2023-11-21T00:51:45;68.82;;;39.20;;
24644;SDS011;12780;45.502;9.146;2023-11-21T00:54:11;63.35;;;38.95;;
24644;SDS011;12780;45.502;9.146;2023-11-21T00:56:37;67.68;;;39.50;;
24644;SDS011;12780;45.502;9.146;2023-11-21T00:59:05;64.15;;;38.33;;
24644;SDS011;12780;45.502;9.146;2023-11-21T01:01:31;68.68;;;39.65;;
24644;SDS011;12780;45.502;9.146;2023-11-21T01:03:57;68.68;;;39.00;;
24644;SDS011;12780;45.502;9.146;2023-11-21T01:06:23;72.07;;;38.85;;
24644;SDS011;12780;45.502;9.146;2023-11-21T01:08:50;69.00;;;39.28;;
24644;SDS011;12780;45.502;9.146;2023-11-21T01:11:16;67.55;;;37.70;;
24644;SDS011;12780;45.502;9.146;2023-11-21T01:13:42;68.18;;;37.60;;
24644;SDS011;12780;45.502;9.146;2023-11-21T01:16:09;63.05;;;38.38;;
24644;SDS011;12780;45.502;9.146;2023-11-21T01:18:36;65.43;;;37.45;;
24644;SDS011;12780;45.502;9.146;2023-11-21T01:21:02;67.90;;;38.08;;
24644;SDS011;12780;45.502;9.146;2023-11-21T01:23:28;65.55;;;37.03;;
24644;SDS011;12780;45.502;9.146;2023-11-21T01:25:55;69.07;;;37.65;;
24644;SDS011;12780;45.502;9.146;2023-11-21T01:28:21;68.75;;;37.40;;
24644;SDS011;12780;45.502;9.146;2023-11-21T01:30:48;70.18;;;38.08;;
24644;SDS011;12780;45.502;9.146;2023-11-21T01:33:14;72.65;;;37.30;;
24644;SDS011;12780;45.502;9.146;2023-11-21T01:35:40;66.20;;;36.85;;
24644;SDS011;12780;45.502;9.146;2023-11-21T01:38:07;62.95;;;36.20;;
24644;SDS011;12780;45.502;9.146;2023-11-21T01:40:33;64.75;;;35.65;;
24644;SDS011;12780;45.502;9.146;2023-11-21T01:42:59;70.00;;;36.05;;
24644;SDS011;12780;45.502;9.146;2023-11-21T01:45:28;64.35;;;37.17;;
24644;SDS011;12780;45.502;9.146;2023-11-21T01:47:56;65.88;;;36.50;;
24644;SDS011;12780;45.502;9.146;2023-11-21T01:50:23;64.93;;;36.13;;
24644;SDS011;12780;45.502;9.146;2023-11-21T01:52:49;69.15;;;35.67;;
24644;SDS011;12780;45.502;9.146;2023-11-21T01:55:16;65.38;;;34.72;;
24644;SDS011;12780;45.502;9.146;2023-11-21T01:57:46;62.97;;;33.85;;
24644;SDS011;12780;45.502;9.146;2023-11-21T02:00:12;69.53;;;34.28;;
24644;SDS011;12780;45.502;9.146;2023-11-21T02:02:48;64.38;;;34.58;;
24644;SDS011;12780;45.502;9.146;2023-11-21T02:05:14;67.03;;;35.55;;
24644;SDS011;12780;45.502;9.146;2023-11-21T02:07:42;61.58;;;33.70;;
24644;SDS011;12780;45.502;9.146;2023-11-21T02:10:08;63.45;;;33.03;;
24644;SDS011;12780;45.502;9.146;2023-11-21T02:12:35;68.07;;;35.30;;
24644;SDS011;12780;45.502;9.146;2023-11-21T02:15:05;63.42;;;32.72;;
24644;SDS011;12780;45.502;9.146;2023-11-21T02:17:37;62.15;;;33.38;;
24644;SDS011;12780;45.502;9.146;2023-11-21T02:20:04;64.88;;;35.10;;
24644;SDS011;12780;45.502;9.146;2023-11-21T02:22:31;62.97;;;34.45;;
24644;SDS011;12780;45.502;9.146;2023-11-21T02:25:03;65.93;;;34.42;;
24644;SDS011;12780;45.502;9.146;2023-11-21T02:27:29;69.82;;;34.72;;
24644;SDS011;12780;45.502;9.146;2023-11-21T02:29:56;65.38;;;33.92;;
24644;SDS011;12780;45.502;9.146;2023-11-21T02:32:22;61.97;;;34.13;;
24644;SDS011;12780;45.502;9.146;2023-11-21T02:34:50;61.80;;;32.55;;
24644;SDS011;12780;45.502;9.146;2023-11-21T02:37:16;58.33;;;31.90;;
24644;SDS011;12780;45.502;9.146;2023-11-21T02:39:42;67.05;;;32.92;;
24644;SDS011;12780;45.502;9.146;2023-11-21T02:42:08;63.08;;;33.25;;
24644;SDS011;12780;45.502;9.146;2023-11-21T02:44:34;58.30;;;32.25;;
24644;SDS011;12780;45.502;9.146;2023-11-21T02:47:00;61.42;;;32.30;;
24644;SDS011;12780;45.502;9.146;2023-11-21T02:49:26;58.05;;;32.70;;
24644;SDS011;12780;45.502;9.146;2023-11-21T02:51:53;63.28;;;33.13;;
24644;SDS011;12780;45.502;9.146;2023-11-21T02:54:22;62.20;;;32.85;;
24644;SDS011;12780;45.502;9.146;2023-11-21T02:56:48;57.63;;;32.15;;
24644;SDS011;12780;45.502;9.146;2023-11-21T02:59:15;62.60;;;33.75;;
24644;SDS011;12780;45.502;9.146;2023-11-21T03:01:41;64.55;;;33.50;;
24644;SDS011;12780;45.502;9.146;2023-11-21T03:04:07;63.75;;;33.83;;
24644;SDS011;12780;45.502;9.146;2023-11-21T03:06:33;65.13;;;34.08;;
24644;SDS011;12780;45.502;9.146;2023-11-21T03:08:59;66.68;;;33.65;;
24644;SDS011;12780;45.502;9.146;2023-11-21T03:11:25;63.80;;;33.47;;
24644;SDS011;12780;45.502;9.146;2023-11-21T03:13:51;69.32;;;34.42;;
24644;SDS011;12780;45.502;9.146;2023-11-21T03:16:18;64.22;;;34.50;;
24644;SDS011;12780;45.502;9.146;2023-11-21T03:18:44;64.65;;;32.90;;
24644;SDS011;12780;45.502;9.146;2023-11-21T03:21:11;60.10;;;32.30;;
24644;SDS011;12780;45.502;9.146;2023-11-21T03:23:38;66.95;;;32.58;;
24644;SDS011;12780;45.502;9.146;2023-11-21T03:26:04;72.70;;;33.05;;
24644;SDS011;12780;45.502;9.146;2023-11-21T03:28:33;74.05;;;32.83;;
24644;SDS011;12780;45.502;9.146;2023-11-21T03:30:59;63.95;;;32.67;;
24644;SDS011;12780;45.502;9.146;2023-11-21T03:33:25;75.07;;;33.67;;
24644;SDS011;12780;45.502;9.146;2023-11-21T03:35:51;69.05;;;33.80;;
24644;SDS011;12780;45.502;9.146;2023-11-21T03:38:18;74.38;;;32.95;;
24644;SDS011;12780;45.502;9.146;2023-11-21T03:40:44;69.38;;;32.28;;
24644;SDS011;12780;45.502;9.146;2023-11-21T03:43:10;69.95;;;32.72;;
24644;SDS011;12780;45.502;9.146;2023-11-21T03:45:36;68.95;;;32.90;;
24644;SDS011;12780;45.502;9.146;2023-11-21T03:48:02;65.82;;;32.15;;
24644;SDS011;12780;45.502;9.146;2023-11-21T03:50:28;68.03;;;33.25;;
24644;SDS011;12780;45.502;9.146;2023-11-21T03:52:54;64.55;;;31.40;;
24644;SDS011;12780;45.502;9.146;2023-11-21T03:55:20;66.32;;;33.10;;
24644;SDS011;12780;45.502;9.146;2023-11-21T03:57:48;66.65;;;32.90;;
24644;SDS011;12780;45.502;9.146;2023-11-21T04:00:14;72.13;;;33.70;;
24644;SDS011;12780;45.502;9.146;2023-11-21T04:02:41;65.68;;;32.50;;
24644;SDS011;12780;45.502;9.146;2023-11-21T04:05:07;68.78;;;31.27;;
24644;SDS011;12780;45.502;9.146;2023-11-21T04:07:34;68.78;;;32.00;;
24644;SDS011;12780;45.502;9.146;2023-11-21T04:10:00;77.53;;;30.90;;
24644;SDS011;12780;45.502;9.146;2023-11-21T04:12:26;74.85;;;32.13;;
24644;SDS011;12780;45.502;9.146;2023-11-21T04:14:52;67.68;;;31.50;;
24644;SDS011;12780;45.502;9.146;2023-11-21T04:17:18;63.90;;;32.83;;
24644;SDS011;12780;45.502;9.146;2023-11-21T04:19:45;72.38;;;32.33;;
24644;SDS011;12780;45.502;9.146;2023-11-21T04:22:11;69.00;;;31.92;;
24644;SDS011;12780;45.502;9.146;2023-11-21T04:24:37;62.72;;;32.15;;
24644;SDS011;12780;45.502;9.146;2023-11-21T04:27:03;69.80;;;32.38;;
24644;SDS011;12780;45.502;9.146;2023-11-21T04:29:29;73.13;;;31.73;;
24644;SDS011;12780;45.502;9.146;2023-11-21T04:31:55;67.72;;;32.92;;
24644;SDS011;12780;45.502;9.146;2023-11-21T04:34:21;67.97;;;31.27;;
24644;SDS011;12780;45.502;9.146;2023-11-21T04:36:47;61.60;;;30.55;;
24644;SDS011;12780;45.502;9.146;2023-11-21T04:39:13;62.47;;;30.33;;
24644;SDS011;12780;45.502;9.146;2023-11-21T04:41:39;66.80;;;31.20;;
24644;SDS011;12780;45.502;9.146;2023-11-21T04:44:06;70.95;;;31.15;;
24644;SDS011;12780;45.502;9.146;2023-11-21T04:46:32;69.88;;;31.70;;
24644;SDS011;12780;45.502;9.146;2023-11-21T04:48:58;72.13;;;31.40;;
24644;SDS011;12780;45.502;9.146;2023-11-21T04:51:24;65.85;;;31.52;;
24644;SDS011;12780;45.502;9.146;2023-11-21T04:53:50;71.38;;;32.08;;
24644;SDS011;12780;45.502;9.146;2023-11-21T04:56:16;65.97;;;32.10;;
24644;SDS011;12780;45.502;9.146;2023-11-21T04:58:42;69.63;;;31.48;;
24644;SDS011;12780;45.502;9.146;2023-11-21T05:01:09;66.75;;;32.40;;
24644;SDS011;12780;45.502;9.146;2023-11-21T05:03:35;67.90;;;32.50;;
24644;SDS011;12780;45.502;9.146;2023-11-21T05:06:03;69.97;;;32.60;;
24644;SDS011;12780;45.502;9.146;2023-11-21T05:08:30;67.13;;;31.83;;
24644;SDS011;12780;45.502;9.146;2023-11-21T05:10:56;71.45;;;32.65;;
24644;SDS011;12780;45.502;9.146;2023-11-21T05:13:22;67.20;;;32.20;;
24644;SDS011;12780;45.502;9.146;2023-11-21T05:15:52;69.88;;;31.05;;
24644;SDS011;12780;45.502;9.146;2023-11-21T05:18:18;71.22;;;31.63;;
24644;SDS011;12780;45.502;9.146;2023-11-21T05:20:44;67.28;;;31.38;;
24644;SDS011;12780;45.502;9.146;2023-11-21T05:23:10;70.60;;;32.15;;
24644;SDS011;12780;45.502;9.146;2023-11-21T05:25:36;66.13;;;32.25;;
24644;SDS011;12780;45.502;9.146;2023-11-21T05:28:02;71.45;;;32.42;;
24644;SDS011;12780;45.502;9.146;2023-11-21T05:30:29;67.65;;;32.25;;
24644;SDS011;12780;45.502;9.146;2023-11-21T05:32:55;64.00;;;33.60;;
24644;SDS011;12780;45.502;9.146;2023-11-21T05:35:21;70.60;;;32.05;;
24644;SDS011;12780;45.502;9.146;2023-11-21T05:37:47;67.50;;;33.03;;
24644;SDS011;12780;45.502;9.146;2023-11-21T05:40:13;63.28;;;32.53;;
24644;SDS011;12780;45.502;9.146;2023-11-21T05:42:39;63.83;;;31.48;;
24644;SDS011;12780;45.502;9.146;2023-11-21T05:45:06;57.47;;;30.52;;
24644;SDS011;12780;45.502;9.146;2023-11-21T05:47:39;76.15;;;33.42;;
24644;SDS011;12780;45.502;9.146;2023-11-21T05:50:05;64.13;;;32.95;;
24644;SDS011;12780;45.502;9.146;2023-11-21T05:52:34;88.07;;;43.00;;
24644;SDS011;12780;45.502;9.146;2023-11-21T05:55:00;78.13;;;38.38;;
24644;SDS011;12780;45.502;9.146;2023-11-21T05:57:26;69.43;;;32.50;;
24644;SDS011;12780;45.502;9.146;2023-11-21T05:59:52;66.30;;;30.35;;
24644;SDS011;12780;45.502;9.146;2023-11-21T06:02:18;72.55;;;31.98;;
24644;SDS011;12780;45.502;9.146;2023-11-21T06:04:45;63.42;;;32.00;;
24644;SDS011;12780;45.502;9.146;2023-11-21T06:07:11;75.25;;;32.60;;
24644;SDS011;12780;45.502;9.146;2023-11-21T06:09:37;64.22;;;32.08;;
24644;SDS011;12780;45.502;9.146;2023-11-21T06:12:03;81.15;;;32.13;;
24644;SDS011;12780;45.502;9.146;2023-11-21T06:14:29;69.22;;;33.58;;
24644;SDS011;12780;45.502;9.146;2023-11-21T06:16:55;75.47;;;33.97;;
24644;SDS011;12780;45.502;9.146;2023-11-21T06:19:22;72.88;;;32.45;;
24644;SDS011;12780;45.502;9.146;2023-11-21T06:21:48;68.40;;;32.05;;
24644;SDS011;12780;45.502;9.146;2023-11-21T06:24:14;78.40;;;32.20;;
24644;SDS011;12780;45.502;9.146;2023-11-21T06:26:40;73.60;;;33.10;;
24644;SDS011;12780;45.502;9.146;2023-11-21T06:29:06;67.95;;;31.25;;
24644;SDS011;12780;45.502;9.146;2023-11-21T06:31:32;69.93;;;33.13;;
24644;SDS011;12780;45.502;9.146;2023-11-21T06:33:58;79.38;;;33.78;;
24644;SDS011;12780;45.502;9.146;2023-11-21T06:36:25;69.88;;;32.53;;
24644;SDS011;12780;45.502;9.146;2023-11-21T06:38:54;74.97;;;33.45;;
24644;SDS011;12780;45.502;9.146;2023-11-21T06:41:20;68.82;;;33.70;;
24644;SDS011;12780;45.502;9.146;2023-11-21T06:43:46;75.70;;;36.00;;
24644;SDS011;12780;45.502;9.146;2023-11-21T06:46:12;70.78;;;34.83;;
24644;SDS011;12780;45.502;9.146;2023-11-21T06:48:40;72.50;;;32.88;;
24644;SDS011;12780;45.502;9.146;2023-11-21T06:51:06;65.90;;;32.15;;
24644;SDS011;12780;45.502;9.146;2023-11-21T06:53:32;74.78;;;33.30;;
24644;SDS011;12780;45.502;9.146;2023-11-21T06:55:58;71.97;;;34.63;;
24644;SDS011;12780;45.502;9.146;2023-11-21T06:58:25;73.30;;;33.50;;
24644;SDS011;12780;45.502;9.146;2023-11-21T07:00:51;67.53;;;34.70;;
24644;SDS011;12780;45.502;9.146;2023-11-21T07:03:17;77.45;;;33.95;;
24644;SDS011;12780;45.502;9.146;2023-11-21T07:05:44;68.57;;;33.28;;
24644;SDS011;12780;45.502;9.146;2023-11-21T07:08:10;78.38;;;36.08;;
24644;SDS011;12780;45.502;9.146;2023-11-21T07:10:37;79.55;;;35.45;;
24644;SDS011;12780;45.502;9.146;2023-11-21T07:13:03;72.05;;;33.80;;
24644;SDS011;12780;45.502;9.146;2023-11-21T07:15:29;75.30;;;35.85;;
24644;SDS011;12780;45.502;9.146;2023-11-21T07:17:56;70.90;;;34.58;;
24644;SDS011;12780;45.502;9.146;2023-11-21T07:20:22;68.00;;;33.53;;
24644;SDS011;12780;45.502;9.146;2023-11-21T07:22:48;74.25;;;34.10;;
24644;SDS011;12780;45.502;9.146;2023-11-21T07:25:15;77.65;;;34.60;;
24644;SDS011;12780;45.502;9.146;2023-11-21T07:27:41;75.00;;;34.40;;
24644;SDS011;12780;45.502;9.146;2023-11-21T07:30:07;73.07;;;35.15;;
24644;SDS011;12780;45.502;9.146;2023-11-21T07:32:34;68.95;;;33.88;;
24644;SDS011;12780;45.502;9.146;2023-11-21T07:35:00;77.53;;;34.97;;
24644;SDS011;12780;45.502;9.146;2023-11-21T07:37:27;83.45;;;34.58;;
24644;SDS011;12780;45.502;9.146;2023-11-21T07:39:53;75.03;;;35.63;;
24644;SDS011;12780;45.502;9.146;2023-11-21T07:42:22;66.65;;;33.55;;
24644;SDS011;12780;45.502;9.146;2023-11-21T07:44:48;72.45;;;34.17;;
24644;SDS011;12780;45.502;9.146;2023-11-21T07:47:15;59.65;;;33.22;;
24644;SDS011;12780;45.502;9.146;2023-11-21T07:49:41;73.55;;;33.38;;
24644;SDS011;12780;45.502;9.146;2023-11-21T07:52:09;71.50;;;35.17;;
24644;SDS011;12780;45.502;9.146;2023-11-21T07:54:35;69.47;;;36.17;;
24644;SDS011;12780;45.502;9.146;2023-11-21T07:57:01;71.55;;;34.33;;
24644;SDS011;12780;45.502;9.146;2023-11-21T07:59:29;78.13;;;36.40;;
24644;SDS011;12780;45.502;9.146;2023-11-21T08:01:55;82.50;;;38.47;;
24644;SDS011;12780;45.502;9.146;2023-11-21T08:04:21;70.32;;;37.00;;
24644;SDS011;12780;45.502;9.146;2023-11-21T08:06:48;77.75;;;36.85;;
24644;SDS011;12780;45.502;9.146;2023-11-21T08:09:14;71.47;;;37.38;;
24644;SDS011;12780;45.502;9.146;2023-11-21T08:11:42;78.45;;;37.15;;
24644;SDS011;12780;45.502;9.146;2023-11-21T08:14:08;84.38;;;39.55;;
24644;SDS011;12780;45.502;9.146;2023-11-21T08:16:34;76.10;;;38.03;;
24644;SDS011;12780;45.502;9.146;2023-11-21T08:19:00;76.13;;;37.97;;
24644;SDS011;12780;45.502;9.146;2023-11-21T08:21:27;73.30;;;38.63;;
24644;SDS011;12780;45.502;9.146;2023-11-21T08:23:54;79.63;;;38.45;;
24644;SDS011;12780;45.502;9.146;2023-11-21T08:26:23;78.60;;;38.97;;
24644;SDS011;12780;45.502;9.146;2023-11-21T08:28:49;86.82;;;39.72;;
24644;SDS011;12780;45.502;9.146;2023-11-21T08:31:17;80.80;;;40.13;;
24644;SDS011;12780;45.502;9.146;2023-11-21T08:33:49;77.05;;;38.33;;
24644;SDS011;12780;45.502;9.146;2023-11-21T08:36:15;74.07;;;38.03;;
24644;SDS011;12780;45.502;9.146;2023-11-21T08:38:41;68.47;;;37.13;;
24644;SDS011;12780;45.502;9.146;2023-11-21T08:41:07;83.60;;;37.83;;
24644;SDS011;12780;45.502;9.146;2023-11-21T08:43:34;73.85;;;40.00;;
24644;SDS011;12780;45.502;9.146;2023-11-21T08:46:00;68.53;;;38.75;;
24644;SDS011;12780;45.502;9.146;2023-11-21T08:48:26;77.22;;;38.63;;
24644;SDS011;12780;45.502;9.146;2023-11-21T08:50:54;66.50;;;39.33;;
24644;SDS011;12780;45.502;9.146;2023-11-21T08:53:21;86.75;;;40.70;;
24644;SDS011;12780;45.502;9.146;2023-11-21T08:55:47;68.85;;;38.75;;
24644;SDS011;12780;45.502;9.146;2023-11-21T08:58:15;71.80;;;39.40;;
24644;SDS011;12780;45.502;9.146;2023-11-21T09:00:41;77.68;;;39.72;;
24644;SDS011;12780;45.502;9.146;2023-11-21T09:03:07;66.05;;;38.80;;
24644;SDS011;12780;45.502;9.146;2023-11-21T09:05:33;75.22;;;39.15;;
24644;SDS011;12780;45.502;9.146;2023-11-21T09:07:59;70.30;;;38.58;;
24644;SDS011;12780;45.502;9.146;2023-11-21T09:10:26;78.30;;;39.47;;
24644;SDS011;12780;45.502;9.146;2023-11-21T09:12:53;72.53;;;38.47;;
24644;SDS011;12780;45.502;9.146;2023-11-21T09:15:19;76.53;;;40.05;;
24644;SDS011;12780;45.502;9.146;2023-11-21T09:17:45;78.53;;;40.22;;
24644;SDS011;12780;45.502;9.146;2023-11-21T09:20:12;68.95;;;38.28;;
24644;SDS011;12780;45.502;9.146;2023-11-21T09:22:39;76.78;;;39.13;;
24644;SDS011;12780;45.502;9.146;2023-11-21T09:25:06;72.28;;;39.28;;
24644;SDS011;12780;45.502;9.146;2023-11-21T09:27:33;79.40;;;39.72;;
24644;SDS011;12780;45.502;9.146;2023-11-21T09:30:00;81.97;;;39.78;;
24644;SDS011;12780;45.502;9.146;2023-11-21T09:32:26;73.80;;;39.55;;
24644;SDS011;12780;45.502;9.146;2023-11-21T09:34:53;82.93;;;40.72;;
24644;SDS011;12780;45.502;9.146;2023-11-21T09:37:23;74.15;;;39.67;;
24644;SDS011;12780;45.502;9.146;2023-11-21T09:39:49;72.18;;;38.67;;
24644;SDS011;12780;45.502;9.146;2023-11-21T09:42:17;81.93;;;38.53;;
24644;SDS011;12780;45.502;9.146;2023-11-21T09:47:22;74.50;;;38.22;;
24644;SDS011;12780;45.502;9.146;2023-11-21T09:49:48;79.80;;;40.58;;
24644;SDS011;12780;45.502;9.146;2023-11-21T09:52:24;84.15;;;39.45;;
24644;SDS011;12780;45.502;9.146;2023-11-21T09:54:51;82.30;;;40.03;;
24644;SDS011;12780;45.502;9.146;2023-11-21T09:57:19;77.50;;;40.90;;
24644;SDS011;12780;45.502;9.146;2023-11-21T09:59:46;80.57;;;41.17;;
24644;SDS011;12780;45.502;9.146;2023-11-21T10:02:14;84.63;;;42.80;;
24644;SDS011;12780;45.502;9.146;2023-11-21T10:04:43;76.70;;;41.85;;
24644;SDS011;12780;45.502;9.146;2023-11-21T10:07:10;77.22;;;41.58;;
24644;SDS011;12780;45.502;9.146;2023-11-21T10:09:37;77.32;;;41.25;;
24644;SDS011;12780;45.502;9.146;2023-11-21T10:12:04;85.70;;;44.03;;
24644;SDS011;12780;45.502;9.146;2023-11-21T10:14:33;83.78;;;41.90;;
24644;SDS011;12780;45.502;9.146;2023-11-21T10:16:59;90.13;;;42.05;;
24644;SDS011;12780;45.502;9.146;2023-11-21T10:19:26;98.00;;;48.60;;
24644;SDS011;12780;45.502;9.146;2023-11-21T10:21:52;77.93;;;40.42;;
24644;SDS011;12780;45.502;9.146;2023-11-21T10:24:19;73.78;;;40.45;;
24644;SDS011;12780;45.502;9.146;2023-11-21T10:26:45;78.43;;;40.15;;
24644;SDS011;12780;45.502;9.146;2023-11-21T10:29:14;89.75;;;42.70;;
24644;SDS011;12780;45.502;9.146;2023-11-21T10:31:43;81.47;;;40.60;;
24644;SDS011;12780;45.502;9.146;2023-11-21T10:34:19;79.43;;;42.33;;
24644;SDS011;12780;45.502;9.146;2023-11-21T10:36:46;90.88;;;42.35;;
24644;SDS011;12780;45.502;9.146;2023-11-21T10:39:19;87.82;;;41.15;;
24644;SDS011;12780;45.502;9.146;2023-11-21T10:41:48;83.35;;;40.67;;
24644;SDS011;12780;45.502;9.146;2023-11-21T10:44:15;83.47;;;42.00;;
24644;SDS011;12780;45.502;9.146;2023-11-21T10:46:54;87.97;;;41.10;;
24644;SDS011;12780;45.502;9.146;2023-11-21T10:49:26;84.60;;;41.20;;
24644;SDS011;12780;45.502;9.146;2023-11-21T10:51:53;81.88;;;41.10;;
24644;SDS011;12780;45.502;9.146;2023-11-21T10:54:21;86.53;;;41.15;;
24644;SDS011;12780;45.502;9.146;2023-11-21T10:56:50;74.55;;;38.63;;
24644;SDS011;12780;45.502;9.146;2023-11-21T10:59:18;87.47;;;40.10;;
24644;SDS011;12780;45.502;9.146;2023-11-21T11:01:49;75.90;;;37.95;;
24644;SDS011;12780;45.502;9.146;2023-11-21T11:04:20;85.50;;;40.20;;
24644;SDS011;12780;45.502;9.146;2023-11-21T11:06:54;76.25;;;38.50;;
24644;SDS011;12780;45.502;9.146;2023-11-21T11:11:47;72.85;;;37.78;;
24644;SDS011;12780;45.502;9.146;2023-11-21T11:14:14;83.28;;;41.00;;
24644;SDS011;12780;45.502;9.146;2023-11-21T11:16:41;77.05;;;38.72;;
24644;SDS011;12780;45.502;9.146;2023-11-21T11:19:08;77.18;;;39.20;;
24644;SDS011;12780;45.502;9.146;2023-11-21T11:21:53;75.57;;;37.63;;
24644;SDS011;12780;45.502;9.146;2023-11-21T11:27:21;74.80;;;38.58;;
24644;SDS011;12780;45.502;9.146;2023-11-21T11:32:52;71.43;;;38.25;;
24644;SDS011;12780;45.502;9.146;2023-11-21T11:35:34;79.03;;;40.55;;
24644;SDS011;12780;45.502;9.146;2023-11-21T11:38:03;88.25;;;43.25;;
24644;SDS011;12780;45.502;9.146;2023-11-21T11:40:39;81.97;;;40.30;;
24644;SDS011;12780;45.502;9.146;2023-11-21T11:43:05;83.90;;;41.17;;
24644;SDS011;12780;45.502;9.146;2023-11-21T11:45:32;90.28;;;39.55;;
24644;SDS011;12780;45.502;9.146;2023-11-21T11:47:59;80.10;;;39.00;;
24644;SDS011;12780;45.502;9.146;2023-11-21T11:50:26;108.25;;;55.63;;
24644;SDS011;12780;45.502;9.146;2023-11-21T11:52:52;102.78;;;51.70;;
24644;SDS011;12780;45.502;9.146;2023-11-21T11:55:23;82.10;;;39.97;;
24644;SDS011;12780;45.502;9.146;2023-11-21T12:00:19;79.43;;;39.00;;
24644;SDS011;12780;45.502;9.146;2023-11-21T12:02:53;81.57;;;36.97;;
24644;SDS011;12780;45.502;9.146;2023-11-21T12:05:20;65.53;;;36.33;;
24644;SDS011;12780;45.502;9.146;2023-11-21T12:07:47;66.65;;;36.75;;
24644;SDS011;12780;45.502;9.146;2023-11-21T12:10:17;65.03;;;37.00;;
24644;SDS011;12780;45.502;9.146;2023-11-21T12:12:47;78.05;;;37.03;;
24644;SDS011;12780;45.502;9.146;2023-11-21T12:15:14;75.13;;;36.70;;
24644;SDS011;12780;45.502;9.146;2023-11-21T12:17:41;74.68;;;37.70;;
24644;SDS011;12780;45.502;9.146;2023-11-21T12:20:11;72.72;;;38.30;;
24644;SDS011;12780;45.502;9.146;2023-11-21T12:22:42;68.88;;;38.40;;
24644;SDS011;12780;45.502;9.146;2023-11-21T12:25:08;79.97;;;40.17;;
24644;SDS011;12780;45.502;9.146;2023-11-21T12:27:34;83.55;;;40.50;;
24644;SDS011;12780;45.502;9.146;2023-11-21T12:30:01;79.22;;;41.00;;
24644;SDS011;12780;45.502;9.146;2023-11-21T12:32:27;79.43;;;40.38;;
24644;SDS011;12780;45.502;9.146;2023-11-21T12:34:53;79.53;;;40.67;;
24644;SDS011;12780;45.502;9.146;2023-11-21T12:37:19;74.70;;;40.42;;
24644;SDS011;12780;45.502;9.146;2023-11-21T12:39:47;72.80;;;39.40;;
24644;SDS011;12780;45.502;9.146;2023-11-21T12:42:14;77.72;;;40.90;;
24644;SDS011;12780;45.502;9.146;2023-11-21T12:44:40;75.97;;;41.20;;
24644;SDS011;12780;45.502;9.146;2023-11-21T12:47:09;83.22;;;40.67;;
24644;SDS011;12780;45.502;9.146;2023-11-21T12:49:39;76.72;;;39.53;;
24644;SDS011;12780;45.502;9.146;2023-11-21T12:52:09;79.32;;;39.78;;
24644;SDS011;12780;45.502;9.146;2023-11-21T12:54:36;89.38;;;41.33;;
24644;SDS011;12780;45.502;9.146;2023-11-21T12:57:02;73.60;;;39.90;;
24644;SDS011;12780;45.502;9.146;2023-11-21T12:59:33;81.75;;;40.15;;
24644;SDS011;12780;45.502;9.146;2023-11-21T13:01:59;74.60;;;38.35;;
24644;SDS011;12780;45.502;9.146;2023-11-21T13:04:31;73.50;;;40.83;;
24644;SDS011;12780;45.502;9.146;2023-11-21T13:07:02;79.60;;;40.92;;
24644;SDS011;12780;45.502;9.146;2023-11-21T13:09:31;76.40;;;40.05;;
24644;SDS011;12780;45.502;9.146;2023-11-21T13:12:01;73.65;;;39.17;;
24644;SDS011;12780;45.502;9.146;2023-11-21T13:16:57;74.50;;;39.65;;
24644;SDS011;12780;45.502;9.146;2023-11-21T13:19:23;72.78;;;38.20;;
24644;SDS011;12780;45.502;9.146;2023-11-21T13:21:49;77.85;;;40.63;;
24644;SDS011;12780;45.502;9.146;2023-11-21T13:24:15;72.00;;;39.78;;
24644;SDS011;12780;45.502;9.146;2023-11-21T13:26:42;85.45;;;40.58;;
24644;SDS011;12780;45.502;9.146;2023-11-21T13:29:10;79.32;;;41.17;;
24644;SDS011;12780;45.502;9.146;2023-11-21T13:31:38;76.03;;;39.45;;
24644;SDS011;12780;45.502;9.146;2023-11-21T13:34:04;79.65;;;40.67;;
24644;SDS011;12780;45.502;9.146;2023-11-21T13:36:33;72.80;;;39.58;;
24644;SDS011;12780;45.502;9.146;2023-11-21T13:39:00;81.20;;;41.20;;
24644;SDS011;12780;45.502;9.146;2023-11-21T13:41:32;79.53;;;40.77;;
24644;SDS011;12780;45.502;9.146;2023-11-21T13:43:59;76.15;;;39.97;;
24644;SDS011;12780;45.502;9.146;2023-11-21T13:46:39;80.20;;;42.30;;
24644;SDS011;12780;45.502;9.146;2023-11-21T13:49:06;92.93;;;41.40;;
24644;SDS011;12780;45.502;9.146;2023-11-21T13:51:35;80.78;;;41.13;;
24644;SDS011;12780;45.502;9.146;2023-11-21T13:54:09;79.35;;;42.00;;
24644;SDS011;12780;45.502;9.146;2023-11-21T13:56:36;82.38;;;41.40;;
24644;SDS011;12780;45.502;9.146;2023-11-21T13:59:03;78.03;;;40.80;;
24644;SDS011;12780;45.502;9.146;2023-11-21T14:01:41;81.47;;;41.55;;
24644;SDS011;12780;45.502;9.146;2023-11-21T14:04:19;80.82;;;42.13;;
24644;SDS011;12780;45.502;9.146;2023-11-21T14:07:00;80.55;;;42.17;;
24644;SDS011;12780;45.502;9.146;2023-11-21T14:09:39;78.50;;;41.00;;
24644;SDS011;12780;45.502;9.146;2023-11-21T14:12:08;85.75;;;41.15;;
24644;SDS011;12780;45.502;9.146;2023-11-21T14:14:37;78.63;;;41.03;;
24644;SDS011;12780;45.502;9.146;2023-11-21T14:17:04;76.75;;;41.13;;
24644;SDS011;12780;45.502;9.146;2023-11-21T14:19:32;71.93;;;40.45;;
24644;SDS011;12780;45.502;9.146;2023-11-21T14:22:01;75.03;;;40.63;;
24644;SDS011;12780;45.502;9.146;2023-11-21T14:24:27;82.45;;;40.88;;
24644;SDS011;12780;45.502;9.146;2023-11-21T14:26:54;73.32;;;40.38;;
24644;SDS011;12780;45.502;9.146;2023-11-21T14:29:20;82.95;;;39.38;;
24644;SDS011;12780;45.502;9.146;2023-11-21T14:31:48;78.88;;;40.38;;
24644;SDS011;12780;45.502;9.146;2023-11-21T14:34:16;78.00;;;40.05;;
24644;SDS011;12780;45.502;9.146;2023-11-21T14:36:42;78.32;;;40.30;;